createdAt,value
2022-10-17T00:01:42.532Z,19.90
2022-10-17T00:04:15.378Z,21.30
2022-10-17T00:06:48.208Z,20.50
2022-10-17T00:09:21.005Z,21.80
2022-10-17T00:11:53.768Z,20.90
2022-10-17T00:14:26.923Z,19.90
2022-10-17T00:16:59.769Z,20.30
2022-10-17T00:19:32.673Z,18.80
2022-10-17T00:22:05.427Z,20.50
2022-10-17T00:24:38.244Z,20.20
2022-10-17T00:27:11.260Z,20.50
2022-10-17T00:29:44.086Z,20.40
2022-10-17T00:32:16.855Z,20.10
2022-10-17T00:34:50.026Z,21.80
2022-10-17T00:37:24.079Z,19.90
2022-10-17T00:39:57.294Z,20.40
2022-10-17T00:42:31.139Z,19.90
2022-10-17T00:45:17.952Z,21.80
2022-10-17T00:47:57.091Z,19.20
2022-10-17T00:50:30.344Z,19.70
2022-10-17T00:53:05.551Z,21.90
2022-10-17T00:55:51.911Z,20.50
2022-10-17T00:58:25.862Z,21.10
2022-10-17T01:00:58.717Z,20.20
2022-10-17T01:03:31.939Z,19.40
2022-10-17T01:06:05.072Z,20.80
2022-10-17T01:08:38.128Z,22.20
2022-10-17T01:11:20.737Z,20.20
2022-10-17T01:13:58.884Z,19.00
2022-10-17T01:16:40.830Z,20.80
2022-10-17T01:19:42.794Z,22.00
2022-10-17T01:22:22.844Z,20.00
2022-10-17T01:25:20.208Z,19.60
2022-10-17T01:28:13.634Z,22.60
2022-10-17T01:31:08.894Z,20.10
2022-10-17T01:33:58.912Z,19.60
2022-10-17T01:36:47.846Z,21.80
2022-10-17T01:39:36.814Z,21.50
2022-10-17T01:42:18.798Z,21.00
2022-10-17T01:45:01.250Z,21.70
2022-10-17T01:47:35.992Z,20.50
2022-10-17T01:50:15.802Z,23.10
2022-10-17T01:52:54.212Z,21.80
2022-10-17T01:55:33.086Z,19.70
2022-10-17T01:58:10.793Z,19.60
2022-10-17T02:00:46.524Z,17.80
2022-10-17T02:03:22.451Z,18.80
2022-10-17T02:05:55.664Z,19.60
2022-10-17T02:08:44.296Z,20.90
2022-10-17T02:11:20.657Z,19.40
2022-10-17T02:14:22.782Z,16.90
2022-10-17T02:17:08.177Z,18.70
2022-10-17T02:19:56.544Z,19.60
2022-10-17T02:22:41.202Z,20.10
2022-10-17T02:25:22.919Z,19.60
2022-10-17T02:28:05.398Z,22.50
2022-10-17T02:30:44.692Z,18.90
2022-10-17T02:33:23.288Z,20.60
2022-10-17T02:35:59.623Z,21.00
2022-10-17T02:38:33.725Z,17.60
2022-10-17T02:41:11.419Z,19.20
2022-10-17T02:43:45.940Z,18.90
2022-10-17T02:46:23.317Z,23.10
2022-10-17T02:49:00.194Z,21.50
2022-10-17T02:51:38.358Z,21.80
2022-10-17T02:54:18.175Z,22.80
2022-10-17T02:56:59.500Z,22.60
2022-10-17T03:02:09.135Z,21.00
2022-10-17T03:04:45.791Z,24.80
2022-10-17T03:07:18.669Z,21.70
2022-10-17T03:09:51.423Z,22.70
2022-10-17T03:12:24.143Z,22.50
2022-10-17T03:15:01.590Z,25.50
2022-10-17T03:17:36.573Z,22.20
2022-10-17T03:20:11.899Z,23.10
2022-10-17T03:22:44.690Z,19.20
2022-10-17T03:25:17.892Z,19.60
2022-10-17T03:27:53.592Z,19.80
2022-10-17T03:30:26.375Z,22.30
2022-10-17T03:33:00.221Z,20.70
2022-10-17T03:35:33.432Z,22.20
2022-10-17T03:38:07.830Z,18.80
2022-10-17T03:40:40.687Z,20.60
2022-10-17T03:43:13.507Z,19.40
2022-10-17T03:45:47.115Z,20.10
2022-10-17T03:48:20.025Z,21.30
2022-10-17T03:50:53.135Z,21.80
2022-10-17T03:53:26.271Z,20.60
2022-10-17T03:56:09.998Z,20.60
2022-10-17T03:58:43.179Z,19.60
2022-10-17T04:01:18.134Z,20.70
2022-10-17T04:03:56.187Z,21.60
2022-10-17T04:06:29.112Z,19.50
2022-10-17T04:09:02.375Z,20.80
2022-10-17T04:11:53.623Z,20.20
2022-10-17T04:14:26.736Z,18.80
2022-10-17T04:16:59.865Z,18.10
2022-10-17T04:19:33.120Z,21.90
2022-10-17T04:22:08.574Z,21.10
2022-10-17T04:24:43.013Z,21.10
2022-10-17T04:27:20.723Z,21.60
2022-10-17T04:29:53.968Z,20.50
2022-10-17T04:32:30.497Z,18.60
2022-10-17T04:35:17.540Z,19.40
2022-10-17T04:37:53.669Z,18.70
2022-10-17T04:40:26.732Z,21.60
2022-10-17T04:42:59.777Z,20.80
2022-10-17T04:45:38.155Z,22.80
2022-10-17T04:48:11.467Z,22.00
2022-10-17T04:50:54.147Z,21.00
2022-10-17T04:53:43.339Z,21.50
2022-10-17T04:56:20.467Z,23.00
2022-10-17T04:58:53.605Z,20.20
2022-10-17T05:01:28.606Z,18.30
2022-10-17T05:04:02.891Z,20.90
2022-10-17T05:06:37.846Z,20.80
2022-10-17T05:09:30.881Z,20.80
2022-10-17T05:12:06.645Z,19.60
2022-10-17T05:14:43.863Z,20.60
2022-10-17T05:17:16.701Z,20.90
2022-10-17T05:19:50.199Z,21.30
2022-10-17T05:22:23.258Z,19.50
2022-10-17T05:25:13.551Z,21.50
2022-10-17T05:27:46.438Z,20.40
2022-10-17T05:30:21.172Z,20.90
2022-10-17T05:32:58.165Z,21.00
2022-10-17T05:35:31.353Z,20.70
2022-10-17T05:38:04.361Z,18.60
2022-10-17T05:40:39.506Z,21.20
2022-10-17T05:43:12.497Z,20.30
2022-10-17T05:45:45.368Z,20.80
2022-10-17T05:48:23.315Z,21.80
2022-10-17T05:51:03.298Z,21.10
2022-10-17T05:53:39.153Z,17.80
2022-10-17T05:56:15.615Z,20.20
2022-10-17T05:59:00.695Z,19.80
2022-10-17T06:01:47.650Z,19.30
2022-10-17T06:04:20.706Z,19.40
2022-10-17T06:06:53.689Z,21.20
2022-10-17T06:09:27.191Z,19.90
2022-10-17T06:12:00.861Z,19.50
2022-10-17T06:14:33.684Z,19.50
2022-10-17T06:17:12.111Z,20.30
2022-10-17T06:19:47.960Z,18.50
2022-10-17T06:22:21.664Z,20.30
2022-10-17T06:24:54.588Z,21.30
2022-10-17T06:27:45.926Z,19.20
2022-10-17T06:30:19.357Z,22.50
2022-10-17T06:32:52.915Z,18.30
2022-10-17T06:35:26.473Z,17.20
2022-10-17T06:37:59.486Z,19.30
2022-10-17T06:40:32.530Z,19.60
2022-10-17T06:43:05.678Z,17.40
2022-10-17T06:46:14.139Z,18.20
2022-10-17T06:48:59.322Z,18.00
2022-10-17T06:51:41.798Z,20.60
2022-10-17T06:54:16.635Z,20.50
2022-10-17T06:57:11.187Z,19.50
2022-10-17T07:00:18.788Z,21.60
2022-10-17T07:02:56.242Z,20.40
2022-10-17T07:05:29.415Z,21.90
2022-10-17T07:08:02.248Z,20.20
2022-10-17T07:10:38.378Z,18.60
2022-10-17T07:13:12.917Z,17.60
2022-10-17T07:15:46.648Z,19.30
2022-10-17T07:18:20.045Z,18.60
2022-10-17T07:20:59.135Z,17.90
2022-10-17T07:23:34.437Z,16.30
2022-10-17T07:26:09.873Z,18.00
2022-10-17T07:28:46.149Z,17.90
2022-10-17T07:31:33.374Z,15.70
2022-10-17T07:34:06.384Z,16.50
2022-10-17T07:36:39.305Z,17.20
2022-10-17T07:39:13.490Z,17.30
2022-10-17T07:41:47.566Z,16.50
2022-10-17T07:44:20.989Z,16.70
2022-10-17T07:46:56.178Z,17.60
2022-10-17T07:49:29.646Z,14.70
2022-10-17T07:52:02.569Z,15.70
2022-10-17T07:54:35.311Z,15.10
2022-10-17T07:57:08.669Z,15.50
2022-10-17T07:59:42.148Z,14.60
2022-10-17T08:02:20.007Z,14.80
2022-10-17T08:04:52.820Z,14.10
2022-10-17T08:07:29.348Z,13.70
2022-10-17T08:10:02.486Z,14.20
2022-10-17T08:12:35.521Z,13.20
2022-10-17T08:15:10.761Z,13.00
2022-10-17T08:17:43.610Z,12.80
2022-10-17T08:20:17.056Z,12.30
2022-10-17T08:22:55.982Z,13.40
2022-10-17T08:25:28.876Z,12.00
2022-10-17T08:28:02.130Z,12.90
2022-10-17T08:30:35.014Z,12.70
2022-10-17T08:33:08.171Z,12.70
2022-10-17T08:35:41.137Z,11.60
2022-10-17T08:38:14.192Z,12.60
2022-10-17T08:40:51.804Z,11.20
2022-10-17T08:43:39.886Z,11.00
2022-10-17T08:46:13.145Z,11.70
2022-10-17T08:48:51.242Z,11.30
2022-10-17T08:51:29.957Z,11.40
2022-10-17T08:54:07.914Z,12.20
2022-10-17T08:56:49.716Z,12.20
2022-10-17T08:59:28.041Z,11.60
2022-10-17T09:02:09.971Z,11.50
2022-10-17T09:05:15.632Z,12.40
2022-10-17T09:07:52.831Z,11.50
2022-10-17T09:10:38.949Z,11.00
2022-10-17T09:13:24.737Z,10.10
2022-10-17T09:16:16.898Z,10.40
2022-10-17T09:19:01.464Z,10.60
2022-10-17T09:21:44.854Z,10.60
2022-10-17T09:24:25.490Z,9.70
2022-10-17T09:26:58.776Z,10.00
2022-10-17T09:29:37.954Z,9.10
2022-10-17T09:32:19.603Z,8.90
2022-10-17T09:34:52.769Z,9.10
2022-10-17T09:37:33.969Z,9.70
2022-10-17T09:40:13.245Z,10.00
2022-10-17T09:42:48.412Z,9.20
2022-10-17T09:45:27.084Z,9.80
2022-10-17T09:48:09.275Z,9.60
2022-10-17T09:50:42.932Z,9.80
2022-10-17T09:53:21.599Z,8.90
2022-10-17T09:55:58.419Z,8.80
2022-10-17T09:58:49.244Z,10.50
2022-10-17T10:01:28.468Z,9.50
2022-10-17T10:07:04.085Z,8.80
2022-10-17T10:09:40.488Z,9.90
2022-10-17T10:12:23.117Z,9.20
2022-10-17T10:14:56.709Z,8.30
2022-10-17T10:17:39.664Z,9.00
2022-10-17T10:20:32.238Z,8.20
2022-10-17T10:23:19.627Z,9.20
2022-10-17T10:25:58.486Z,8.30
2022-10-17T10:28:35.346Z,8.30
2022-10-17T10:31:11.002Z,8.30
2022-10-17T10:33:49.549Z,7.40
2022-10-17T10:36:24.372Z,7.60
2022-10-17T10:39:02.410Z,8.20
2022-10-17T10:41:50.151Z,7.70
2022-10-17T10:44:27.582Z,7.80
2022-10-17T10:47:23.331Z,7.50
2022-10-17T10:50:25.596Z,7.00
2022-10-17T10:53:15.416Z,7.10
2022-10-17T10:55:52.588Z,6.80
2022-10-17T10:58:42.848Z,8.10
2022-10-17T11:01:23.858Z,7.50
2022-10-17T11:04:09.691Z,7.30
2022-10-17T11:06:45.697Z,7.40
2022-10-17T11:09:32.876Z,8.00
2022-10-17T11:12:21.850Z,7.40
2022-10-17T11:15:01.116Z,7.30
2022-10-17T11:17:41.636Z,7.20
2022-10-17T11:20:25.486Z,7.30
2022-10-17T11:23:03.876Z,7.30
2022-10-17T11:25:40.047Z,7.20
2022-10-17T11:28:18.670Z,7.50
2022-10-17T11:30:57.746Z,7.20
2022-10-17T11:33:41.111Z,7.50
2022-10-17T11:36:16.507Z,7.00
2022-10-17T11:38:53.893Z,7.80
2022-10-17T11:41:32.789Z,7.90
2022-10-17T11:44:15.509Z,6.90
2022-10-17T11:46:52.617Z,7.10
2022-10-17T11:49:34.236Z,7.60
2022-10-17T11:52:51.416Z,7.50
2022-10-17T11:55:22.016Z,7.30
2022-10-17T11:58:11.227Z,6.80
2022-10-17T12:01:02.132Z,7.90
2022-10-17T12:03:51.973Z,7.00
2022-10-17T12:06:38.004Z,7.00
2022-10-17T12:09:19.175Z,7.20
2022-10-17T12:11:56.435Z,6.40
2022-10-17T12:14:46.948Z,6.80
2022-10-17T12:17:39.017Z,7.00
2022-10-17T12:20:32.569Z,7.30
2022-10-17T12:23:29.320Z,6.80
2022-10-17T12:26:05.594Z,7.70
2022-10-17T12:28:45.421Z,7.50
2022-10-17T12:31:33.694Z,7.50
2022-10-17T12:34:07.598Z,7.30
2022-10-17T12:36:43.991Z,7.60
2022-10-17T12:39:52.528Z,7.50
2022-10-17T12:42:47.537Z,6.80
2022-10-17T12:45:54.402Z,7.00
2022-10-17T12:49:20.919Z,7.50
2022-10-17T12:53:00.993Z,7.20
2022-10-17T12:55:34.317Z,7.70
2022-10-17T12:58:14.223Z,7.80
2022-10-17T13:01:18.956Z,8.00
2022-10-17T13:03:52.599Z,8.30
2022-10-17T13:06:29.587Z,7.70
2022-10-17T13:09:06.306Z,8.20
2022-10-17T13:11:40.903Z,8.40
2022-10-17T13:14:18.860Z,7.90
2022-10-17T13:16:59.548Z,8.50
2022-10-17T13:19:41.307Z,8.20
2022-10-17T13:22:21.427Z,8.10
2022-10-17T13:25:06.540Z,8.50
2022-10-17T13:27:40.175Z,8.40
2022-10-17T13:30:32.350Z,9.70
2022-10-17T13:33:17.593Z,9.30
2022-10-17T13:36:06.695Z,8.50
2022-10-17T13:38:41.889Z,9.50
2022-10-17T13:41:36.181Z,9.90
2022-10-17T13:44:19.207Z,10.40
2022-10-17T13:46:52.842Z,8.40
2022-10-17T13:49:34.610Z,10.00
2022-10-17T13:52:17.059Z,9.00
2022-10-17T13:54:53.477Z,10.20
2022-10-17T13:57:30.187Z,9.90
2022-10-17T14:00:10.023Z,10.40
2022-10-17T14:02:48.430Z,9.80
2022-10-17T14:05:23.797Z,9.20
2022-10-17T14:08:20.228Z,10.20
2022-10-17T14:10:53.118Z,10.60
2022-10-17T14:13:28.576Z,9.90
2022-10-17T14:16:04.235Z,9.70
2022-10-17T14:18:39.104Z,10.10
2022-10-17T14:24:32.741Z,9.90
2022-10-17T14:27:25.546Z,10.70
2022-10-17T14:30:02.862Z,10.90
2022-10-17T14:32:38.874Z,9.50
2022-10-17T14:35:41.044Z,9.80
2022-10-17T14:38:17.465Z,9.70
2022-10-17T14:41:14.291Z,11.00
2022-10-17T14:43:56.052Z,10.90
2022-10-17T14:46:29.239Z,10.20
2022-10-17T14:49:09.995Z,10.10
2022-10-17T14:52:07.967Z,10.20
2022-10-17T14:54:44.475Z,10.50
2022-10-17T14:57:24.588Z,10.70
2022-10-17T14:59:58.432Z,10.90
2022-10-17T15:02:32.546Z,10.50
2022-10-17T15:05:08.365Z,15.50
2022-10-17T15:07:45.667Z,10.40
2022-10-17T15:10:35.699Z,10.70
2022-10-17T15:15:59.935Z,10.40
2022-10-17T15:18:32.720Z,11.90
2022-10-17T15:21:25.697Z,10.70
2022-10-17T15:24:01.804Z,12.00
2022-10-17T15:26:37.354Z,10.00
2022-10-17T15:29:11.647Z,10.50
2022-10-17T15:31:44.429Z,10.30
2022-10-17T15:34:17.202Z,12.30
2022-10-17T15:36:54.225Z,10.40
2022-10-17T15:39:26.983Z,11.10
2022-10-17T15:42:00.303Z,15.10
2022-10-17T15:44:33.658Z,10.60
2022-10-17T15:47:06.998Z,13.00
2022-10-17T15:49:39.977Z,11.70
2022-10-17T15:52:14.422Z,10.80
2022-10-17T15:54:47.289Z,15.80
2022-10-17T15:57:24.257Z,11.00
2022-10-17T15:59:59.033Z,10.70
2022-10-17T16:02:33.364Z,9.70
2022-10-17T16:05:15.054Z,9.70
2022-10-17T16:07:48.503Z,9.10
2022-10-17T16:10:22.474Z,8.90
2022-10-17T16:12:55.617Z,7.60
2022-10-17T16:15:29.828Z,8.10
2022-10-17T16:18:05.913Z,7.20
2022-10-17T16:20:40.969Z,7.10
2022-10-17T16:23:15.744Z,6.40
2022-10-17T16:25:48.624Z,5.30
2022-10-17T16:28:21.676Z,5.70
2022-10-17T16:30:54.645Z,6.40
2022-10-17T16:33:27.554Z,6.20
2022-10-17T16:36:00.482Z,6.80
2022-10-17T16:38:33.224Z,6.20
2022-10-17T16:41:15.403Z,6.10
2022-10-17T16:43:48.185Z,5.40
2022-10-17T16:46:21.990Z,5.80
2022-10-17T16:48:54.979Z,5.70
2022-10-17T16:51:29.331Z,6.20
2022-10-17T16:54:02.812Z,5.70
2022-10-17T16:56:35.914Z,6.60
2022-10-17T16:59:08.952Z,7.20
2022-10-17T17:01:42.002Z,6.20
2022-10-17T17:04:15.027Z,5.90
2022-10-17T17:06:47.841Z,6.70
2022-10-17T17:09:20.842Z,7.50
2022-10-17T17:11:53.804Z,6.20
2022-10-17T17:14:26.768Z,5.70
2022-10-17T17:16:59.714Z,5.40
2022-10-17T17:19:32.920Z,6.00
2022-10-17T17:22:05.836Z,5.10
2022-10-17T17:24:38.692Z,6.20
2022-10-17T17:27:13.510Z,5.90
2022-10-17T17:29:46.844Z,5.80
2022-10-17T17:32:19.722Z,10.70
2022-10-17T17:34:52.461Z,5.80
2022-10-17T17:37:25.239Z,7.50
2022-10-17T17:39:58.121Z,8.80
2022-10-17T17:42:31.033Z,6.50
2022-10-17T17:45:03.947Z,7.40
2022-10-17T17:47:36.782Z,5.70
2022-10-17T17:50:11.171Z,5.80
2022-10-17T17:52:46.536Z,6.00
2022-10-17T17:55:19.501Z,5.60
2022-10-17T17:57:52.329Z,5.80
2022-10-17T18:00:25.182Z,5.60
2022-10-17T18:02:58.769Z,6.50
2022-10-17T18:05:32.259Z,5.80
2022-10-17T18:08:05.349Z,6.00
2022-10-17T18:10:38.098Z,5.90
2022-10-17T18:13:10.909Z,7.40
2022-10-17T18:15:46.849Z,7.10
2022-10-17T18:18:19.999Z,5.50
2022-10-17T18:20:52.835Z,5.10
2022-10-17T18:23:25.907Z,6.10
2022-10-17T18:26:01.062Z,6.70
2022-10-17T18:28:36.650Z,5.20
2022-10-17T18:31:19.546Z,5.90
2022-10-17T18:33:54.085Z,5.10
2022-10-17T18:36:27.781Z,6.50
2022-10-17T18:39:02.540Z,6.60
2022-10-17T18:41:35.864Z,5.00
2022-10-17T18:44:08.893Z,5.60
2022-10-17T18:46:42.922Z,6.30
2022-10-17T18:49:23.226Z,5.90
2022-10-17T18:51:55.961Z,5.70
2022-10-17T18:54:29.497Z,6.20
2022-10-17T18:57:02.393Z,6.10
2022-10-17T18:59:35.221Z,5.70
2022-10-17T19:02:09.943Z,5.90
2022-10-17T19:04:42.799Z,5.00
2022-10-17T19:07:17.264Z,5.60
2022-10-17T19:09:50.786Z,6.00
2022-10-17T19:12:23.903Z,6.80
2022-10-17T19:14:57.561Z,7.40
2022-10-17T19:17:30.657Z,5.80
2022-10-17T19:20:03.651Z,5.70
2022-10-17T19:22:36.341Z,6.60
2022-10-17T19:25:10.775Z,5.50
2022-10-17T19:27:43.697Z,6.20
2022-10-17T19:30:16.863Z,4.70
2022-10-17T19:32:49.575Z,5.90
2022-10-17T19:35:22.759Z,5.60
2022-10-17T19:37:55.709Z,5.80
2022-10-17T19:40:28.957Z,5.00
2022-10-17T19:43:01.769Z,5.60
2022-10-17T19:45:34.548Z,6.90
2022-10-17T19:48:08.119Z,6.40
2022-10-17T19:50:44.894Z,6.40
2022-10-17T19:53:17.684Z,6.70
2022-10-17T19:55:50.781Z,6.70
2022-10-17T19:58:24.453Z,6.00
2022-10-17T20:01:01.125Z,5.90
2022-10-17T20:03:34.089Z,6.10
2022-10-17T20:06:07.569Z,5.90
2022-10-17T20:08:41.343Z,5.60
2022-10-17T20:11:19.254Z,5.80
2022-10-17T20:13:52.931Z,5.60
2022-10-17T20:16:30.444Z,5.80
2022-10-17T20:19:09.785Z,5.80
2022-10-17T20:21:43.670Z,6.10
2022-10-17T20:24:18.981Z,5.70
2022-10-17T20:26:51.839Z,6.20
2022-10-17T20:29:28.044Z,5.80
2022-10-17T20:32:01.109Z,6.30
2022-10-17T20:34:35.749Z,5.30
2022-10-17T20:37:08.686Z,6.30
2022-10-17T20:39:41.474Z,5.90
2022-10-17T20:42:14.259Z,6.20
2022-10-17T20:44:47.205Z,5.90
2022-10-17T20:47:39.991Z,5.80
2022-10-17T20:50:13.592Z,6.70
2022-10-17T20:52:46.455Z,6.20
2022-10-17T20:55:19.519Z,5.60
2022-10-17T20:57:55.473Z,5.30
2022-10-17T21:00:29.899Z,5.90
2022-10-17T21:03:02.714Z,6.00
2022-10-17T21:05:38.615Z,5.60
2022-10-17T21:08:11.675Z,5.30
2022-10-17T21:10:44.454Z,5.80
2022-10-17T21:13:17.473Z,5.00
2022-10-17T21:15:50.245Z,5.80
2022-10-17T21:18:23.079Z,5.00
2022-10-17T21:20:55.899Z,5.90
2022-10-17T21:23:29.189Z,5.30
2022-10-17T21:26:07.225Z,5.90
2022-10-17T21:28:40.834Z,5.90
2022-10-17T21:31:19.270Z,4.90
2022-10-17T21:33:54.461Z,6.00
2022-10-17T21:36:28.824Z,5.60
2022-10-17T21:39:01.805Z,5.30
2022-10-17T21:41:35.257Z,4.90
2022-10-17T21:44:13.239Z,5.30
2022-10-17T21:46:46.829Z,4.60
2022-10-17T21:49:22.750Z,5.40
2022-10-17T21:51:55.608Z,6.20
2022-10-17T21:54:28.498Z,5.90
2022-10-17T21:57:01.382Z,5.80
2022-10-17T21:59:35.711Z,5.30
2022-10-17T22:02:08.484Z,4.70
2022-10-17T22:04:41.299Z,4.80
2022-10-17T22:07:14.046Z,5.00
2022-10-17T22:09:46.963Z,5.00
2022-10-17T22:12:19.759Z,4.60
2022-10-17T22:14:52.608Z,5.60
2022-10-17T22:17:25.410Z,5.00
2022-10-17T22:19:58.201Z,5.60
2022-10-17T22:22:31.406Z,5.40
2022-10-17T22:25:04.413Z,5.60
2022-10-17T22:27:37.289Z,5.00
2022-10-17T22:30:12.576Z,4.40
2022-10-17T22:32:45.384Z,5.30
2022-10-17T22:35:18.582Z,5.40
2022-10-17T22:37:51.329Z,5.00
2022-10-17T22:40:24.149Z,5.80
2022-10-17T22:42:57.037Z,5.90
2022-10-17T22:45:30.014Z,4.90
2022-10-17T22:48:02.897Z,5.40
2022-10-17T22:50:36.153Z,5.20
2022-10-17T22:53:08.993Z,5.50
2022-10-17T22:55:41.913Z,5.70
2022-10-17T22:58:14.765Z,5.40
2022-10-17T23:00:47.835Z,5.60
2022-10-17T23:03:21.719Z,6.20
2022-10-17T23:05:54.777Z,6.70
2022-10-17T23:08:28.196Z,6.40
2022-10-17T23:11:01.054Z,6.30
2022-10-17T23:13:34.110Z,6.70
2022-10-17T23:16:08.220Z,6.30
2022-10-17T23:18:41.586Z,6.60
2022-10-17T23:21:14.748Z,7.20
2022-10-17T23:23:47.745Z,7.40
2022-10-17T23:26:20.678Z,7.40
2022-10-17T23:28:57.965Z,7.10
2022-10-17T23:31:31.519Z,6.90
2022-10-17T23:34:04.279Z,7.20
2022-10-17T23:36:38.671Z,7.50
2022-10-17T23:39:12.466Z,7.80
2022-10-17T23:41:45.216Z,7.50
2022-10-17T23:44:19.330Z,7.30
2022-10-17T23:46:52.115Z,7.30
2022-10-17T23:49:25.000Z,7.70
2022-10-17T23:51:57.875Z,7.90
2022-10-17T23:54:30.662Z,8.30
2022-10-17T23:57:03.556Z,8.30
2022-10-17T23:59:36.291Z,9.70
